Hlavní strana
METAR-TAF:

METAR-TAF

Letiště :

Alexander City, Alabama, Spojené státy americké

zeměpisná šířka: 32-54-53N, zeměpisná délka: 085-57-46W, výška: 209 m

Aktuální stav počasí

Zpráva byla vytvořena před 17 minutami, v 17:35 UTC
Severní vítr 10 kt s nárazy do 16 kt
Teplota 7°C
Vlhkost vzduchu 93%
Tlak 1021 hPa
Viditelnost: 4.8 km
Zataženo ve výšce 800 ft
déšť

METAR: KALX 151735Z AUTO 36010G16KT 3SM RA OVC008 07/06 A3015 RMK AO2 P0006 T00680061

Čas: 11:52 (17:52 UTC)


TAF: chybějící

Stav a předpovědi počasí z více než 4 000 letišť (zprávy METAR a TAF).

Červené a žluté tečky na mapě představují dostupné meteorologické stanice.

Když kurzor umístíte na tečku, zobrazí se název stanice.

Pak kliknutím zobrazíte stav a předpověď počasí.

Chcete-li změnit mapu, kliknutím na zelené tlačítko se znaménkem +mapu přiblížíte, kliknutím na zelené tlačítko se znaménkem – mapu oddálíte a kliknutím na zelené šipky přejdete na sousední mapy.


METAR-TAF: